createdAt,value
2019-04-25T00:00:42.211Z,1.40
2019-04-25T00:03:10.326Z,1.30
2019-04-25T00:05:37.328Z,1.70
2019-04-25T00:08:04.690Z,1.30
2019-04-25T00:10:31.884Z,1.42
2019-04-25T00:12:59.001Z,1.57
2019-04-25T00:15:26.084Z,1.45
2019-04-25T00:17:53.080Z,1.35
2019-04-25T00:20:21.376Z,1.50
2019-04-25T00:23:02.064Z,1.30
2019-04-25T00:25:52.793Z,1.22
2019-04-25T00:28:19.800Z,1.40
2019-04-25T00:30:46.795Z,1.42
2019-04-25T00:33:13.774Z,1.20
2019-04-25T00:35:43.237Z,1.50
2019-04-25T00:38:09.644Z,1.50
2019-04-25T00:40:36.627Z,1.32
2019-04-25T00:43:03.608Z,1.22
2019-04-25T00:45:31.721Z,1.50
2019-04-25T00:47:58.906Z,1.50
2019-04-25T00:50:26.565Z,1.50
2019-04-25T00:52:53.710Z,1.20
2019-04-25T00:55:28.626Z,1.40
2019-04-25T00:57:55.054Z,1.72
2019-04-25T01:00:41.599Z,1.50
2019-04-25T01:03:13.743Z,1.30
2019-04-25T01:05:42.390Z,1.55
2019-04-25T01:08:09.861Z,1.70
2019-04-25T01:10:38.217Z,1.40
2019-04-25T01:13:06.240Z,1.40
2019-04-25T01:15:33.569Z,1.70
2019-04-25T01:18:01.298Z,1.45
2019-04-25T01:20:30.751Z,1.47
2019-04-25T01:23:00.859Z,1.55
2019-04-25T01:25:40.306Z,1.40
2019-04-25T01:28:00.389Z,1.67
2019-04-25T01:30:29.671Z,1.40
2019-04-25T01:32:58.901Z,1.60
2019-04-25T01:36:04.943Z,1.42
2019-04-25T01:38:43.294Z,1.50
2019-04-25T01:41:23.860Z,1.72
2019-04-25T01:44:00.323Z,1.65
2019-04-25T01:46:29.003Z,1.35
2019-04-25T01:48:58.712Z,1.70
2019-04-25T01:51:27.232Z,1.50
2019-04-25T01:53:55.760Z,1.70
2019-04-25T01:56:24.753Z,1.60
2019-04-25T01:58:55.042Z,1.40
2019-04-25T02:01:25.792Z,1.45
2019-04-25T02:03:55.469Z,1.30
2019-04-25T02:06:24.783Z,1.40
2019-04-25T02:08:55.247Z,1.67
2019-04-25T02:11:31.476Z,1.67
2019-04-25T02:14:00.156Z,1.72
2019-04-25T02:16:27.389Z,1.87
2019-04-25T02:18:56.131Z,1.70
2019-04-25T02:21:23.662Z,1.80
2019-04-25T02:23:50.664Z,1.70
2019-04-25T02:26:18.643Z,1.70
2019-04-25T02:28:45.829Z,1.80
2019-04-25T02:31:17.577Z,1.77
2019-04-25T02:33:44.102Z,1.62
2019-04-25T02:36:10.869Z,1.80
2019-04-25T02:38:38.102Z,1.50
2019-04-25T02:41:08.295Z,1.62
2019-04-25T02:43:35.375Z,1.42
2019-04-25T02:46:37.172Z,1.35
2019-04-25T02:49:29.261Z,1.40
2019-04-25T02:52:08.471Z,1.82
2019-04-25T02:54:36.037Z,1.50
2019-04-25T02:57:06.561Z,2.02
2019-04-25T02:59:34.569Z,2.02
2019-04-25T03:02:04.845Z,1.25
2019-04-25T03:04:33.918Z,1.80
2019-04-25T03:07:02.684Z,1.80
2019-04-25T03:09:30.166Z,1.55
2019-04-25T03:11:58.886Z,1.52
2019-04-25T03:14:26.847Z,1.45
2019-04-25T03:16:54.450Z,1.72
2019-04-25T03:19:41.239Z,1.72
2019-04-25T03:22:11.829Z,1.60
2019-04-25T03:24:39.428Z,1.50
2019-04-25T03:27:07.333Z,1.75
2019-04-25T03:29:34.499Z,1.92
2019-04-25T03:32:02.858Z,1.65
2019-04-25T03:34:31.163Z,1.82
2019-04-25T03:36:58.184Z,1.65
2019-04-25T03:39:27.067Z,1.60
2019-04-25T03:41:54.292Z,1.70
2019-04-25T03:44:21.976Z,1.37
2019-04-25T03:46:51.251Z,1.80
2019-04-25T03:49:18.770Z,1.52
2019-04-25T03:51:46.396Z,1.52
2019-04-25T03:54:14.265Z,1.67
2019-04-25T03:56:51.932Z,1.60
2019-04-25T03:59:11.410Z,1.52
2019-04-25T04:01:38.506Z,1.62
2019-04-25T04:04:06.734Z,1.92
2019-04-25T04:06:34.227Z,1.60
2019-04-25T04:09:01.239Z,1.90
2019-04-25T04:11:28.239Z,1.80
2019-04-25T04:13:55.619Z,1.70
2019-04-25T04:16:26.537Z,1.85
2019-04-25T04:18:55.598Z,1.72
2019-04-25T04:21:45.443Z,1.70
2019-04-25T04:24:20.397Z,1.95
2019-04-25T04:27:08.911Z,1.72
2019-04-25T04:29:35.668Z,1.80
2019-04-25T04:32:03.096Z,1.95
2019-04-25T04:34:30.954Z,2.02
2019-04-25T04:36:57.955Z,1.95
2019-04-25T04:39:25.439Z,1.85
2019-04-25T04:41:53.560Z,2.30
2019-04-25T04:44:24.006Z,1.87
2019-04-25T04:46:53.754Z,1.82
2019-04-25T04:49:21.088Z,1.35
2019-04-25T04:51:48.123Z,1.55
2019-04-25T04:54:15.516Z,1.80
2019-04-25T04:56:43.848Z,1.80
2019-04-25T04:59:11.001Z,1.62
2019-04-25T05:01:56.025Z,1.57
2019-04-25T05:04:27.781Z,1.82
2019-04-25T05:07:21.609Z,2.08
2019-04-25T05:09:49.261Z,2.10
2019-04-25T05:12:17.439Z,2.05
2019-04-25T05:14:45.787Z,1.80
2019-04-25T05:17:14.965Z,1.85
2019-04-25T05:19:43.434Z,2.02
2019-04-25T05:22:13.006Z,1.75
2019-04-25T05:24:40.323Z,1.60
2019-04-25T05:27:07.332Z,1.77
2019-04-25T05:29:34.328Z,1.75
2019-04-25T05:32:01.731Z,1.75
2019-04-25T05:34:28.776Z,1.60
2019-04-25T05:36:56.378Z,1.60
2019-04-25T05:39:24.088Z,1.80
2019-04-25T05:42:10.926Z,1.80
2019-04-25T05:44:37.999Z,1.70
2019-04-25T05:47:05.025Z,2.30
2019-04-25T05:49:32.215Z,1.70
2019-04-25T05:52:00.408Z,1.92
2019-04-25T05:54:27.440Z,1.75
2019-04-25T05:56:54.757Z,1.50
2019-04-25T05:59:21.968Z,1.60
2019-04-25T06:01:49.571Z,1.82
2019-04-25T06:04:17.807Z,1.62
2019-04-25T06:06:46.020Z,1.70
2019-04-25T06:09:35.975Z,1.90
2019-04-25T06:12:23.710Z,1.52
2019-04-25T06:14:52.954Z,1.82
2019-04-25T06:17:29.013Z,1.85
2019-04-25T06:19:56.347Z,1.70
2019-04-25T06:22:33.209Z,2.00
2019-04-25T06:25:12.441Z,1.75
2019-04-25T06:27:40.236Z,1.98
2019-04-25T06:30:22.535Z,2.00
2019-04-25T06:32:50.927Z,1.40
2019-04-25T06:35:18.480Z,1.45
2019-04-25T06:37:45.487Z,1.75
2019-04-25T06:40:13.708Z,1.98
2019-04-25T06:42:41.342Z,2.62
2019-04-25T06:45:49.997Z,2.10
2019-04-25T06:48:43.373Z,2.22
2019-04-25T06:51:13.456Z,2.20
2019-04-25T06:53:41.483Z,2.05
2019-04-25T06:56:08.503Z,1.98
2019-04-25T06:58:36.042Z,2.55
2019-04-25T07:01:03.439Z,2.10
2019-04-25T07:03:31.516Z,2.62
2019-04-25T07:05:58.877Z,2.70
2019-04-25T07:08:27.777Z,2.60
2019-04-25T07:10:55.425Z,2.52
2019-04-25T07:13:24.656Z,2.58
2019-04-25T07:15:51.503Z,2.60
2019-04-25T07:18:19.056Z,2.27
2019-04-25T07:20:46.178Z,2.45
2019-04-25T07:23:13.855Z,2.87
2019-04-25T07:25:46.433Z,2.42
2019-04-25T07:28:36.855Z,2.52
2019-04-25T07:31:24.250Z,2.47
2019-04-25T07:33:59.605Z,2.20
2019-04-25T07:36:28.181Z,2.58
2019-04-25T07:39:07.535Z,2.77
2019-04-25T07:41:25.919Z,2.58
2019-04-25T07:43:53.612Z,2.10
2019-04-25T07:46:20.653Z,2.27
2019-04-25T07:48:47.988Z,2.83
2019-04-25T07:51:16.633Z,2.52
2019-04-25T07:53:43.810Z,2.70
2019-04-25T07:56:12.269Z,2.67
2019-04-25T07:58:49.358Z,2.47
2019-04-25T08:01:09.888Z,2.40
2019-04-25T08:03:37.451Z,2.33
2019-04-25T08:06:05.235Z,2.55
2019-04-25T08:08:33.950Z,2.50
2019-04-25T08:11:04.274Z,2.35
2019-04-25T08:13:46.939Z,2.55
2019-04-25T08:16:15.758Z,2.47
2019-04-25T08:18:43.371Z,2.87
2019-04-25T08:21:11.039Z,2.12
2019-04-25T08:23:39.024Z,2.00
2019-04-25T08:26:06.362Z,2.00
2019-04-25T08:28:34.491Z,2.27
2019-04-25T08:31:03.572Z,2.55
2019-04-25T08:33:30.683Z,2.12
2019-04-25T08:36:08.218Z,1.98
2019-04-25T08:38:27.571Z,2.42
2019-04-25T08:40:55.788Z,2.22
2019-04-25T08:43:24.343Z,2.40
2019-04-25T08:45:51.466Z,2.08
2019-04-25T08:48:18.524Z,2.33
2019-04-25T08:50:57.714Z,2.30
2019-04-25T08:53:29.161Z,2.02
2019-04-25T08:56:07.266Z,2.30
2019-04-25T08:59:05.498Z,2.10
2019-04-25T09:01:46.960Z,2.30
2019-04-25T09:04:37.999Z,2.42
2019-04-25T09:07:05.477Z,2.15
2019-04-25T09:09:35.369Z,2.02
2019-04-25T09:12:04.121Z,1.87
2019-04-25T09:14:31.375Z,1.90
2019-04-25T09:16:58.722Z,2.30
2019-04-25T09:19:25.744Z,2.05
2019-04-25T09:21:53.342Z,2.10
2019-04-25T09:24:20.519Z,1.85
2019-04-25T09:26:47.637Z,1.90
2019-04-25T09:29:19.397Z,1.95
2019-04-25T09:31:45.124Z,1.95
2019-04-25T09:34:14.047Z,1.92
2019-04-25T09:36:43.575Z,1.90
2019-04-25T09:39:23.719Z,2.60
2019-04-25T09:41:51.100Z,1.80
2019-04-25T09:44:24.223Z,2.02
2019-04-25T09:46:51.433Z,1.95
2019-04-25T09:49:28.747Z,2.12
2019-04-25T09:52:17.407Z,1.98
2019-04-25T09:54:56.183Z,1.60
2019-04-25T09:57:34.312Z,1.90
2019-04-25T10:00:01.334Z,2.33
2019-04-25T10:02:28.344Z,2.00
2019-04-25T10:04:55.349Z,1.98
2019-04-25T10:07:22.483Z,2.05
2019-04-25T10:09:50.167Z,2.30
2019-04-25T10:12:17.457Z,2.40
2019-04-25T10:15:04.692Z,2.00
2019-04-25T10:17:31.726Z,2.00
2019-04-25T10:19:58.761Z,1.87
2019-04-25T10:22:25.806Z,1.80
2019-04-25T10:25:00.221Z,1.85
2019-04-25T10:27:22.117Z,1.95
2019-04-25T10:29:53.707Z,1.72
2019-04-25T10:32:20.303Z,2.08
2019-04-25T10:34:47.365Z,1.37
2019-04-25T10:37:14.712Z,2.02
2019-04-25T10:39:43.499Z,2.00
2019-04-25T10:42:10.767Z,1.77
2019-04-25T10:44:38.091Z,1.82
2019-04-25T10:47:05.186Z,1.72
2019-04-25T10:49:34.376Z,2.05
2019-04-25T10:52:01.945Z,2.05
2019-04-25T10:54:29.288Z,1.70
2019-04-25T10:56:56.562Z,1.90
2019-04-25T10:59:23.902Z,1.87
2019-04-25T11:01:51.088Z,1.90
2019-04-25T11:04:24.374Z,1.70
2019-04-25T11:06:51.751Z,1.80
2019-04-25T11:09:25.899Z,2.05
2019-04-25T11:11:53.618Z,1.80
2019-04-25T11:14:20.744Z,1.87
2019-04-25T11:16:48.446Z,1.60
2019-04-25T11:19:15.487Z,1.87
2019-04-25T11:21:45.158Z,2.10
2019-04-25T11:24:14.216Z,1.90
2019-04-25T11:26:41.578Z,1.77
2019-04-25T11:29:08.831Z,1.80
2019-04-25T11:31:40.993Z,1.72
2019-04-25T11:34:08.750Z,1.70
2019-04-25T11:36:35.768Z,1.50
2019-04-25T11:39:33.845Z,1.67
2019-04-25T11:42:05.667Z,1.62
2019-04-25T11:44:33.308Z,1.67
2019-04-25T11:47:03.822Z,1.55
2019-04-25T11:49:31.317Z,1.70
2019-04-25T11:51:58.338Z,2.08
2019-04-25T11:54:25.380Z,1.72
2019-04-25T11:56:54.722Z,1.65
2019-04-25T11:59:23.519Z,1.82
2019-04-25T12:01:52.253Z,1.77
2019-04-25T12:04:19.371Z,1.82
2019-04-25T12:06:47.603Z,1.60
2019-04-25T12:09:14.660Z,1.47
2019-04-25T12:11:43.530Z,1.80
2019-04-25T12:14:10.636Z,1.70
2019-04-25T12:16:38.839Z,1.82
2019-04-25T12:19:06.551Z,1.70
2019-04-25T12:21:34.032Z,1.92
2019-04-25T12:24:05.442Z,1.75
2019-04-25T12:26:31.122Z,1.45
2019-04-25T12:28:58.834Z,1.32
2019-04-25T12:31:25.867Z,1.70
2019-04-25T12:33:55.204Z,1.50
2019-04-25T12:36:23.968Z,1.80
2019-04-25T12:38:51.170Z,1.85
2019-04-25T12:41:18.255Z,1.50
2019-04-25T12:43:54.583Z,1.22
2019-04-25T12:46:35.110Z,1.65
2019-04-25T12:49:02.448Z,1.30
2019-04-25T12:51:29.489Z,1.45
2019-04-25T12:53:56.540Z,1.67
2019-04-25T12:56:24.755Z,1.55
2019-04-25T12:58:53.830Z,1.40
2019-04-25T13:01:23.107Z,1.57
2019-04-25T13:03:51.339Z,1.70
2019-04-25T13:06:18.370Z,1.90
2019-04-25T13:08:45.455Z,1.67
2019-04-25T13:11:13.934Z,1.50
2019-04-25T13:13:41.288Z,1.80
2019-04-25T13:16:08.634Z,1.42
2019-04-25T13:18:36.101Z,1.57
2019-04-25T13:21:03.607Z,1.75
2019-04-25T13:23:32.034Z,1.50
2019-04-25T13:25:59.507Z,1.55
2019-04-25T13:29:01.355Z,1.40
2019-04-25T13:31:46.735Z,1.50
2019-04-25T13:34:35.217Z,1.40
2019-04-25T13:36:51.414Z,1.47
2019-04-25T13:39:19.276Z,1.60
2019-04-25T13:41:46.817Z,1.20
2019-04-25T13:44:14.278Z,1.50
2019-04-25T13:46:43.255Z,1.40
2019-04-25T13:49:11.126Z,1.10
2019-04-25T13:51:38.549Z,1.65
2019-04-25T13:54:06.482Z,1.87
2019-04-25T13:56:34.869Z,1.35
2019-04-25T13:59:04.228Z,1.10
2019-04-25T14:01:31.823Z,1.00
2019-04-25T14:03:59.062Z,1.10
2019-04-25T14:06:26.264Z,1.00
2019-04-25T14:08:53.630Z,1.07
2019-04-25T14:11:21.497Z,1.37
2019-04-25T14:13:49.275Z,1.00
2019-04-25T14:16:25.336Z,1.52
2019-04-25T14:19:15.627Z,1.45
2019-04-25T14:21:43.434Z,1.55
2019-04-25T14:24:19.923Z,1.40
2019-04-25T14:26:39.524Z,1.10
2019-04-25T14:29:06.782Z,1.00
2019-04-25T14:31:45.496Z,1.20
2019-04-25T14:34:04.991Z,1.35
2019-04-25T14:36:33.234Z,1.62
2019-04-25T14:39:00.717Z,1.07
2019-04-25T14:41:28.143Z,1.37
2019-04-25T14:43:55.663Z,1.02
2019-04-25T14:46:22.765Z,1.10
2019-04-25T14:48:50.340Z,1.07
2019-04-25T14:51:17.521Z,1.07
2019-04-25T14:53:45.420Z,1.60
2019-04-25T14:56:29.077Z,1.05
2019-04-25T14:58:56.467Z,1.15
2019-04-25T15:01:24.013Z,1.20
2019-04-25T15:03:52.058Z,1.20
2019-04-25T15:06:20.022Z,1.20
2019-04-25T15:08:47.970Z,1.20
2019-04-25T15:11:15.548Z,1.37
2019-04-25T15:13:42.855Z,1.15
2019-04-25T15:16:09.866Z,1.02
2019-04-25T15:18:46.377Z,1.20
2019-04-25T15:21:06.396Z,1.17
2019-04-25T15:23:34.424Z,1.40
2019-04-25T15:26:01.744Z,1.10
2019-04-25T15:28:29.711Z,1.10
2019-04-25T15:30:57.023Z,0.90
2019-04-25T15:33:25.188Z,1.30
2019-04-25T15:36:03.527Z,0.90
2019-04-25T15:38:37.326Z,1.10
2019-04-25T15:41:13.857Z,1.22
2019-04-25T15:44:01.140Z,0.98
2019-04-25T15:46:32.292Z,1.07
2019-04-25T15:49:00.799Z,1.30
2019-04-25T15:51:28.270Z,0.82
2019-04-25T15:53:55.654Z,0.90
2019-04-25T15:56:23.523Z,0.90
2019-04-25T15:58:51.184Z,0.90
2019-04-25T16:01:18.476Z,1.00
2019-04-25T16:03:45.537Z,0.80
2019-04-25T16:06:13.205Z,1.00
2019-04-25T16:08:40.271Z,1.05
2019-04-25T16:11:07.321Z,1.07
2019-04-25T16:13:34.485Z,1.10
2019-04-25T16:16:01.604Z,1.00
2019-04-25T16:18:30.461Z,0.93
2019-04-25T16:20:57.773Z,1.00
2019-04-25T16:23:24.799Z,0.90
2019-04-25T16:25:52.382Z,0.90
2019-04-25T16:28:19.642Z,1.10
2019-04-25T16:30:47.044Z,1.07
2019-04-25T16:33:14.646Z,1.22
2019-04-25T16:35:42.769Z,1.40
2019-04-25T16:38:10.888Z,0.85
2019-04-25T16:40:37.927Z,0.85
2019-04-25T16:43:08.349Z,1.10
2019-04-25T16:45:38.058Z,1.55
2019-04-25T16:48:05.095Z,0.95
2019-04-25T16:50:34.178Z,1.35
2019-04-25T16:53:01.977Z,1.02
2019-04-25T16:55:30.848Z,1.10
2019-04-25T16:57:58.975Z,1.12
2019-04-25T17:00:38.574Z,1.10
2019-04-25T17:03:05.601Z,1.55
2019-04-25T17:05:34.600Z,1.05
2019-04-25T17:08:01.925Z,1.30
2019-04-25T17:10:30.301Z,1.30
2019-04-25T17:12:58.840Z,1.55
2019-04-25T17:15:50.039Z,2.27
2019-04-25T17:18:20.504Z,1.47
2019-04-25T17:20:57.344Z,1.47
2019-04-25T17:23:24.780Z,1.67
2019-04-25T17:25:52.147Z,1.42
2019-04-25T17:28:20.629Z,1.12
2019-04-25T17:30:51.019Z,1.40
2019-04-25T17:33:36.527Z,1.72
2019-04-25T17:36:23.554Z,1.20
2019-04-25T17:38:54.120Z,1.80
2019-04-25T17:41:21.440Z,1.35
2019-04-25T17:43:49.066Z,1.80
2019-04-25T17:46:18.274Z,1.45
2019-04-25T17:48:45.562Z,1.57
2019-04-25T17:51:12.623Z,1.22
2019-04-25T17:53:39.982Z,2.10
2019-04-25T17:56:07.325Z,2.15
2019-04-25T17:58:35.266Z,2.02
2019-04-25T18:01:03.174Z,2.80
2019-04-25T18:03:30.798Z,2.85
2019-04-25T18:05:58.258Z,2.75
2019-04-25T18:08:25.809Z,2.27
2019-04-25T18:10:53.083Z,2.05
2019-04-25T18:13:21.259Z,2.22
2019-04-25T18:16:17.532Z,2.02
2019-04-25T18:18:59.093Z,1.72
2019-04-25T18:21:26.502Z,2.02
2019-04-25T18:24:12.290Z,2.10
2019-04-25T18:26:59.312Z,1.60
2019-04-25T18:29:26.597Z,2.08
2019-04-25T18:31:54.454Z,1.82
2019-04-25T18:34:28.868Z,1.80
2019-04-25T18:37:10.495Z,1.80
2019-04-25T18:39:46.221Z,1.70
2019-04-25T18:42:31.991Z,1.90
2019-04-25T18:44:58.988Z,2.25
2019-04-25T18:47:26.265Z,1.90
2019-04-25T18:49:53.283Z,2.47
2019-04-25T18:52:49.113Z,2.25
2019-04-25T18:55:23.119Z,2.98
2019-04-25T18:58:02.699Z,3.25
2019-04-25T19:00:39.200Z,2.90
2019-04-25T19:03:30.707Z,3.12
2019-04-25T19:06:00.499Z,4.05
2019-04-25T19:08:28.170Z,3.30
2019-04-25T19:10:55.531Z,3.40
2019-04-25T19:13:22.698Z,3.70
2019-04-25T19:15:51.506Z,4.28
2019-04-25T19:18:19.609Z,4.50
2019-04-25T19:20:48.062Z,4.42
2019-04-25T19:23:15.736Z,4.62
2019-04-25T19:25:43.692Z,4.80
2019-04-25T19:28:10.989Z,4.90
2019-04-25T19:30:38.652Z,5.25
2019-04-25T19:33:07.483Z,4.97
2019-04-25T19:35:34.777Z,5.85
2019-04-25T19:38:02.148Z,5.10
2019-04-25T19:40:49.060Z,5.10
2019-04-25T19:43:35.194Z,5.33
2019-04-25T19:46:02.376Z,4.40
2019-04-25T19:48:30.351Z,4.17
2019-04-25T19:50:57.384Z,4.05
2019-04-25T19:53:24.415Z,3.30
2019-04-25T19:55:52.877Z,4.10
2019-04-25T19:58:20.631Z,2.77
2019-04-25T20:00:49.072Z,2.60
2019-04-25T20:03:54.965Z,2.98
2019-04-25T20:06:45.746Z,2.60
2019-04-25T20:09:25.979Z,2.65
2019-04-25T20:11:53.629Z,2.25
2019-04-25T20:14:20.998Z,2.30
2019-04-25T20:16:49.625Z,2.50
2019-04-25T20:19:16.848Z,2.10
2019-04-25T20:21:44.594Z,2.58
2019-04-25T20:24:13.030Z,2.22
2019-04-25T20:26:40.138Z,2.22
2019-04-25T20:29:08.208Z,2.45
2019-04-25T20:31:35.878Z,2.17
2019-04-25T20:34:06.202Z,2.27
2019-04-25T20:36:32.419Z,1.67
2019-04-25T20:39:01.905Z,1.92
2019-04-25T20:41:28.932Z,2.00
2019-04-25T20:43:57.018Z,1.75
2019-04-25T20:46:24.111Z,1.75
2019-04-25T20:48:52.290Z,1.77
2019-04-25T20:51:20.513Z,1.35
2019-04-25T20:53:48.819Z,1.52
2019-04-25T20:56:17.101Z,1.47
2019-04-25T20:58:44.241Z,1.40
2019-04-25T21:01:11.529Z,1.47
2019-04-25T21:03:39.217Z,1.35
2019-04-25T21:06:13.441Z,1.40
2019-04-25T21:08:40.513Z,1.40
2019-04-25T21:11:07.697Z,1.67
2019-04-25T21:13:43.377Z,1.40
2019-04-25T21:16:46.082Z,1.40
2019-04-25T21:19:16.196Z,1.32
2019-04-25T21:21:43.232Z,1.45
2019-04-25T21:24:10.503Z,1.30
2019-04-25T21:26:37.629Z,1.27
2019-04-25T21:29:04.949Z,1.25
2019-04-25T21:31:32.977Z,1.40
2019-04-25T21:34:00.015Z,1.20
2019-04-25T21:36:27.984Z,1.15
2019-04-25T21:38:55.410Z,1.10
2019-04-25T21:41:57.899Z,1.20
2019-04-25T21:44:25.578Z,1.30
2019-04-25T21:46:53.672Z,1.20
2019-04-25T21:49:22.043Z,1.70
2019-04-25T21:51:49.601Z,1.65
2019-04-25T21:54:16.902Z,1.75
2019-04-25T21:56:44.325Z,1.60
2019-04-25T21:59:11.807Z,1.65
2019-04-25T22:01:39.933Z,1.70
2019-04-25T22:04:07.371Z,1.60
2019-04-25T22:06:35.035Z,1.32
2019-04-25T22:09:05.241Z,1.40
2019-04-25T22:11:32.484Z,1.30
2019-04-25T22:13:59.913Z,1.65
2019-04-25T22:16:27.583Z,1.45
2019-04-25T22:18:56.462Z,1.45
2019-04-25T22:21:24.075Z,1.57
2019-04-25T22:24:03.087Z,1.35
2019-04-25T22:26:20.205Z,1.40
2019-04-25T22:28:48.258Z,1.50
2019-04-25T22:31:20.129Z,1.30
2019-04-25T22:34:03.752Z,1.10
2019-04-25T22:36:31.902Z,1.32
2019-04-25T22:39:09.444Z,1.30
2019-04-25T22:41:37.181Z,1.40
2019-04-25T22:44:04.981Z,1.20
2019-04-25T22:46:33.173Z,1.30
2019-04-25T22:49:01.355Z,1.55
2019-04-25T22:51:29.074Z,1.37
2019-04-25T22:53:56.479Z,1.20
2019-04-25T22:56:23.494Z,1.50
2019-04-25T22:58:51.162Z,1.55
2019-04-25T23:01:41.536Z,1.50
2019-04-25T23:04:15.020Z,1.42
2019-04-25T23:06:43.157Z,1.27
2019-04-25T23:09:10.423Z,1.10
2019-04-25T23:11:38.069Z,1.40
2019-04-25T23:14:05.837Z,1.55
2019-04-25T23:16:34.924Z,1.32
2019-04-25T23:19:02.824Z,1.40
2019-04-25T23:21:30.545Z,1.40
2019-04-25T23:23:57.578Z,1.37
2019-04-25T23:26:44.271Z,1.40
2019-04-25T23:29:12.449Z,1.52
2019-04-25T23:31:39.900Z,1.50
2019-04-25T23:34:08.766Z,1.30
2019-04-25T23:36:37.000Z,1.35
2019-04-25T23:39:08.297Z,1.35
2019-04-25T23:41:37.617Z,1.47
2019-04-25T23:44:05.766Z,1.30
2019-04-25T23:46:34.469Z,1.30
2019-04-25T23:49:02.115Z,1.32
2019-04-25T23:51:30.019Z,1.40
2019-04-25T23:53:57.355Z,1.32
2019-04-25T23:56:24.382Z,1.35
2019-04-25T23:58:51.698Z,1.50
